createdAt,value
2017-11-01T00:00:27.039Z,7.37
2017-11-01T00:01:37.524Z,7.37
2017-11-01T00:02:47.979Z,7.44
2017-11-01T00:03:58.458Z,7.41
2017-11-01T00:05:08.937Z,7.48
2017-11-01T00:06:19.383Z,7.41
2017-11-01T00:07:30.007Z,7.33
2017-11-01T00:08:40.530Z,7.39
2017-11-01T00:09:51.006Z,7.44
2017-11-01T00:11:01.588Z,7.36
2017-11-01T00:12:12.047Z,7.44
2017-11-01T00:13:22.503Z,7.48
2017-11-01T00:14:32.983Z,7.44
2017-11-01T00:15:43.459Z,7.49
2017-11-01T00:16:53.907Z,7.48
2017-11-01T00:18:04.449Z,7.56
2017-11-01T00:19:15.039Z,7.54
2017-11-01T00:20:25.796Z,7.58
2017-11-01T00:21:36.251Z,7.56
2017-11-01T00:22:46.769Z,7.47
2017-11-01T00:23:57.243Z,7.51
2017-11-01T00:25:07.714Z,7.49
2017-11-01T00:26:18.198Z,7.55
2017-11-01T00:27:28.712Z,7.43
2017-11-01T00:28:39.261Z,7.4
2017-11-01T00:29:49.708Z,7.33
2017-11-01T00:31:00.159Z,7.39
2017-11-01T00:32:10.689Z,7.39
2017-11-01T00:33:20.802Z,7.39
2017-11-01T00:34:30.836Z,7.41
2017-11-01T00:35:41.129Z,7.43
2017-11-01T00:36:51.839Z,7.47
2017-11-01T00:38:02.272Z,7.41
2017-11-01T00:39:12.744Z,7.4
2017-11-01T00:40:23.203Z,7.43
2017-11-01T00:41:33.684Z,7.43
2017-11-01T00:42:44.143Z,7.52
2017-11-01T00:43:54.606Z,7.44
2017-11-01T00:45:04.867Z,7.48
2017-11-01T00:46:15.326Z,7.48
2017-11-01T00:47:25.782Z,7.51
2017-11-01T00:48:36.247Z,7.54
2017-11-01T00:49:46.816Z,7.51
2017-11-01T00:50:57.318Z,7.52
2017-11-01T00:52:07.769Z,7.43
2017-11-01T00:53:18.255Z,7.41
2017-11-01T00:54:28.723Z,7.4
2017-11-01T00:55:39.332Z,7.4
2017-11-01T00:56:49.467Z,7.39
2017-11-01T00:57:59.944Z,7.43
2017-11-01T00:59:10.126Z,7.43
2017-11-01T01:00:20.614Z,7.52
2017-11-01T01:01:31.066Z,7.51
2017-11-01T01:02:41.582Z,7.43
2017-11-01T01:03:51.706Z,7.43
2017-11-01T01:05:02.146Z,7.43
2017-11-01T01:06:13.649Z,7.51
2017-11-01T01:07:24.109Z,7.47
2017-11-01T01:08:34.568Z,7.44
2017-11-01T01:09:45.035Z,7.43
2017-11-01T01:10:55.492Z,7.47
2017-11-01T01:12:06.020Z,7.41
2017-11-01T01:13:16.465Z,7.41
2017-11-01T01:14:26.942Z,7.34
2017-11-01T01:15:37.427Z,7.43
2017-11-01T01:16:47.606Z,7.36
2017-11-01T01:17:58.289Z,7.31
2017-11-01T01:19:08.760Z,7.36
2017-11-01T01:20:19.276Z,7.26
2017-11-01T01:21:29.777Z,7.24
2017-11-01T01:22:40.242Z,7.26
2017-11-01T01:23:50.689Z,7.29
2017-11-01T01:25:01.175Z,7.28
2017-11-01T01:26:11.642Z,7.17
2017-11-01T01:27:22.097Z,7.18
2017-11-01T01:28:32.578Z,7.22
2017-11-01T01:29:43.224Z,7.18
2017-11-01T01:30:54.037Z,7.14
2017-11-01T01:32:04.636Z,7.14
2017-11-01T01:33:15.088Z,7.26
2017-11-01T01:34:25.565Z,7.2
2017-11-01T01:35:36.001Z,7.17
2017-11-01T01:36:46.448Z,7.2
2017-11-01T01:37:56.879Z,7.2
2017-11-01T01:39:07.427Z,7.18
2017-11-01T01:40:17.854Z,7.15
2017-11-01T01:41:28.337Z,7.2
2017-11-01T01:42:38.782Z,7.22
2017-11-01T01:43:49.325Z,7.14
2017-11-01T01:44:59.809Z,7.17
2017-11-01T01:46:10.253Z,7.21
2017-11-01T01:47:20.739Z,7.11
2017-11-01T01:48:31.193Z,7.11
2017-11-01T01:49:41.704Z,7.14
2017-11-01T01:50:52.150Z,6.97
2017-11-01T01:52:02.636Z,6.99
2017-11-01T01:53:13.190Z,6.99
2017-11-01T01:54:23.673Z,7.06
2017-11-01T01:55:34.125Z,7.1
2017-11-01T01:56:44.565Z,7.13
2017-11-01T01:57:55.021Z,7.17
2017-11-01T01:59:05.495Z,7.08
2017-11-01T02:00:16.099Z,7.08
2017-11-01T02:01:26.566Z,7.15
2017-11-01T02:02:37.268Z,6.99
2017-11-01T02:03:47.984Z,7.02
2017-11-01T02:04:58.661Z,6.96
2017-11-01T02:06:09.102Z,7.02
2017-11-01T02:07:19.588Z,7.08
2017-11-01T02:08:30.091Z,7.02
2017-11-01T02:09:40.519Z,7
2017-11-01T02:10:51.012Z,6.99
2017-11-01T02:12:01.048Z,6.97
2017-11-01T02:13:11.506Z,7
2017-11-01T02:14:21.989Z,7.03
2017-11-01T02:15:32.456Z,6.99
2017-11-01T02:16:42.906Z,6.93
2017-11-01T02:17:53.038Z,6.93
2017-11-01T02:19:03.546Z,6.97
2017-11-01T02:20:14.064Z,6.99
2017-11-01T02:21:24.600Z,6.89
2017-11-01T02:22:35.030Z,6.97
2017-11-01T02:23:45.533Z,6.95
2017-11-01T02:24:55.976Z,7.02
2017-11-01T02:26:06.480Z,7.08
2017-11-01T02:27:16.928Z,7.1
2017-11-01T02:28:27.467Z,7.03
2017-11-01T02:29:37.926Z,6.96
2017-11-01T02:30:48.383Z,6.95
2017-11-01T02:31:58.828Z,7
2017-11-01T02:33:09.389Z,6.95
2017-11-01T02:34:19.927Z,6.9
2017-11-01T02:35:30.378Z,6.97
2017-11-01T02:36:40.545Z,6.89
2017-11-01T02:37:50.996Z,6.97
2017-11-01T02:39:01.152Z,6.97
2017-11-01T02:40:11.685Z,6.95
2017-11-01T02:41:22.322Z,6.89
2017-11-01T02:42:32.756Z,6.9
2017-11-01T02:43:43.301Z,6.87
2017-11-01T02:44:53.880Z,6.84
2017-11-01T02:46:04.052Z,6.77
2017-11-01T02:47:14.510Z,6.75
2017-11-01T02:48:25.006Z,6.77
2017-11-01T02:49:35.475Z,6.59
2017-11-01T02:50:46.210Z,6.64
2017-11-01T02:51:56.639Z,6.64
2017-11-01T02:53:07.098Z,6.66
2017-11-01T02:54:17.763Z,6.63
2017-11-01T02:55:28.307Z,6.74
2017-11-01T02:56:38.740Z,6.63
2017-11-01T02:57:49.228Z,6.56
2017-11-01T02:58:59.694Z,6.64
2017-11-01T03:00:10.127Z,6.64
2017-11-01T03:01:20.593Z,6.59
2017-11-01T03:02:31.256Z,6.62
2017-11-01T03:03:41.845Z,6.63
2017-11-01T03:04:52.277Z,6.74
2017-11-01T03:06:02.794Z,6.74
2017-11-01T03:07:13.179Z,6.78
2017-11-01T03:08:23.663Z,6.75
2017-11-01T03:09:34.114Z,6.63
2017-11-01T03:10:44.697Z,6.63
2017-11-01T03:11:55.148Z,6.72
2017-11-01T03:13:05.713Z,6.74
2017-11-01T03:14:16.293Z,6.74
2017-11-01T03:15:26.741Z,6.77
2017-11-01T03:16:37.366Z,6.69
2017-11-01T03:17:47.843Z,6.77
2017-11-01T03:18:58.302Z,6.72
2017-11-01T03:20:08.440Z,6.77
2017-11-01T03:21:18.861Z,6.72
2017-11-01T03:22:28.654Z,6.82
2017-11-01T03:23:39.150Z,6.84
2017-11-01T03:24:49.616Z,6.85
2017-11-01T03:26:00.137Z,6.84
2017-11-01T03:27:10.680Z,6.84
2017-11-01T03:28:21.568Z,6.78
2017-11-01T03:29:32.019Z,6.84
2017-11-01T03:30:42.488Z,6.81
2017-11-01T03:31:52.948Z,6.87
2017-11-01T03:33:03.403Z,6.9
2017-11-01T03:34:14.891Z,6.96
2017-11-01T03:35:25.347Z,6.89
2017-11-01T03:36:35.471Z,6.95
2017-11-01T03:37:45.937Z,6.93
2017-11-01T03:38:56.384Z,6.95
2017-11-01T03:40:06.815Z,7.03
2017-11-01T03:41:17.282Z,6.92
2017-11-01T03:42:27.848Z,7.03
2017-11-01T03:43:38.311Z,6.96
2017-11-01T03:44:48.768Z,7.03
2017-11-01T03:45:58.968Z,7
2017-11-01T03:47:09.410Z,6.97
2017-11-01T03:48:19.924Z,6.99
2017-11-01T03:49:30.392Z,6.96
2017-11-01T03:50:40.847Z,6.96
2017-11-01T03:51:51.385Z,6.96
2017-11-01T03:53:01.844Z,6.92
2017-11-01T03:54:12.286Z,7.02
2017-11-01T03:55:22.856Z,7.02
2017-11-01T03:56:33.367Z,7.02
2017-11-01T03:57:43.844Z,7.02
2017-11-01T03:58:54.285Z,7.02
2017-11-01T04:00:04.808Z,7
2017-11-01T04:01:14.965Z,6.99
2017-11-01T04:02:25.460Z,7.15
2017-11-01T04:03:35.934Z,7.13
2017-11-01T04:04:46.374Z,7.15
2017-11-01T04:05:56.459Z,7.15
2017-11-01T04:07:07.081Z,7.11
2017-11-01T04:08:17.561Z,7.13
2017-11-01T04:09:28.009Z,7.1
2017-11-01T04:10:38.468Z,7.05
2017-11-01T04:11:48.933Z,7.06
2017-11-01T04:12:58.955Z,7.11
2017-11-01T04:14:09.411Z,7.18
2017-11-01T04:15:19.878Z,7.15
2017-11-01T04:16:30.350Z,7.22
2017-11-01T04:17:40.787Z,7.11
2017-11-01T04:18:51.287Z,7.18
2017-11-01T04:20:01.802Z,7.08
2017-11-01T04:21:12.279Z,7.14
2017-11-01T04:22:22.849Z,7.17
2017-11-01T04:23:33.319Z,7.08
2017-11-01T04:24:43.786Z,7.13
2017-11-01T04:25:54.240Z,7.22
2017-11-01T04:27:04.760Z,7.28
2017-11-01T04:28:15.245Z,7.36
2017-11-01T04:29:25.739Z,7.21
2017-11-01T04:30:36.195Z,7.21
2017-11-01T04:31:46.686Z,7.21
2017-11-01T04:32:57.190Z,7.33
2017-11-01T04:34:07.669Z,7.29
2017-11-01T04:35:18.197Z,7.33
2017-11-01T04:36:28.700Z,7.31
2017-11-01T04:37:39.218Z,7.26
2017-11-01T04:38:49.666Z,7.34
2017-11-01T04:40:00.104Z,7.31
2017-11-01T04:41:10.562Z,7.28
2017-11-01T04:42:20.728Z,7.29
2017-11-01T04:43:31.288Z,7.26
2017-11-01T04:44:41.867Z,7.31
2017-11-01T04:45:52.342Z,7.36
2017-11-01T04:47:02.812Z,7.29
2017-11-01T04:48:13.263Z,7.39
2017-11-01T04:49:23.735Z,7.43
2017-11-01T04:50:34.187Z,7.39
2017-11-01T04:51:44.663Z,7.37
2017-11-01T04:52:55.127Z,7.37
2017-11-01T04:54:05.601Z,7.37
2017-11-01T04:55:16.040Z,7.33
2017-11-01T04:56:26.478Z,7.4
2017-11-01T04:57:36.923Z,7.43
2017-11-01T04:58:47.546Z,7.48
2017-11-01T04:59:58.135Z,7.44
2017-11-01T05:01:08.614Z,7.49
2017-11-01T05:02:18.813Z,7.54
2017-11-01T05:03:29.298Z,7.55
2017-11-01T05:04:39.748Z,7.59
2017-11-01T05:05:50.219Z,7.52
2017-11-01T05:07:00.693Z,7.66
2017-11-01T05:08:11.153Z,7.58
2017-11-01T05:09:21.575Z,7.55
2017-11-01T05:10:32.026Z,7.62
2017-11-01T05:11:42.469Z,7.66
2017-11-01T05:12:53.010Z,7.61
2017-11-01T05:14:03.458Z,7.64
2017-11-01T05:15:13.971Z,7.69
2017-11-01T05:16:24.430Z,7.64
2017-11-01T05:17:34.553Z,7.7
2017-11-01T05:18:45.033Z,7.7
2017-11-01T05:19:55.475Z,7.64
2017-11-01T05:21:05.965Z,7.67
2017-11-01T05:22:16.470Z,7.64
2017-11-01T05:23:26.912Z,7.62
2017-11-01T05:24:37.450Z,7.66
2017-11-01T05:25:48.048Z,7.72
2017-11-01T05:26:58.545Z,7.73
2017-11-01T05:28:08.998Z,7.74
2017-11-01T05:29:19.484Z,7.74
2017-11-01T05:30:29.961Z,7.73
2017-11-01T05:31:40.114Z,7.66
2017-11-01T05:32:50.580Z,7.66
2017-11-01T05:34:01.131Z,7.67
2017-11-01T05:35:11.582Z,7.67
2017-11-01T05:36:22.028Z,7.67
2017-11-01T05:37:32.171Z,7.58
2017-11-01T05:38:42.621Z,7.58
2017-11-01T05:39:53.118Z,7.56
2017-11-01T05:41:03.252Z,7.58
2017-11-01T05:42:13.705Z,7.56
2017-11-01T05:43:24.166Z,7.74
2017-11-01T05:44:34.621Z,7.76
2017-11-01T05:45:45.107Z,7.74
2017-11-01T05:46:55.580Z,7.74
2017-11-01T05:48:06.110Z,7.69
2017-11-01T05:49:16.251Z,7.73
2017-11-01T05:50:26.709Z,7.72
2017-11-01T05:51:37.306Z,7.74
2017-11-01T05:52:47.830Z,7.66
2017-11-01T05:53:58.278Z,7.7
2017-11-01T05:55:08.753Z,7.79
2017-11-01T05:56:19.230Z,7.8
2017-11-01T05:57:29.705Z,7.76
2017-11-01T05:58:40.153Z,7.79
2017-11-01T05:59:50.648Z,7.7
2017-11-01T06:01:01.134Z,7.79
2017-11-01T06:02:11.597Z,7.8
2017-11-01T06:03:22.069Z,7.84
2017-11-01T06:04:32.572Z,7.74
2017-11-01T06:05:43.012Z,7.67
2017-11-01T06:06:53.472Z,7.69
2017-11-01T06:08:03.968Z,7.73
2017-11-01T06:09:14.082Z,7.72
2017-11-01T06:10:24.197Z,7.7
2017-11-01T06:11:34.644Z,7.77
2017-11-01T06:12:45.198Z,7.77
2017-11-01T06:13:55.651Z,7.77
2017-11-01T06:15:06.125Z,7.77
2017-11-01T06:16:16.589Z,7.77
2017-11-01T06:17:27.110Z,7.77
2017-11-01T06:18:37.541Z,7.67
2017-11-01T06:19:48.014Z,7.66
2017-11-01T06:20:58.459Z,7.76
2017-11-01T06:22:09.548Z,7.73
2017-11-01T06:23:20.032Z,7.8
2017-11-01T06:24:30.519Z,7.8
2017-11-01T06:25:40.977Z,7.73
2017-11-01T06:26:51.418Z,7.82
2017-11-01T06:28:01.892Z,7.76
2017-11-01T06:29:12.607Z,7.79
2017-11-01T06:30:23.066Z,7.8
2017-11-01T06:31:33.632Z,7.8
2017-11-01T06:32:44.188Z,7.76
2017-11-01T06:33:54.366Z,7.76
2017-11-01T06:35:04.834Z,7.77
2017-11-01T06:36:15.286Z,7.7
2017-11-01T06:37:25.736Z,7.74
2017-11-01T06:38:36.257Z,7.72
2017-11-01T06:39:46.760Z,7.82
2017-11-01T06:40:57.337Z,7.77
2017-11-01T06:42:07.474Z,7.79
2017-11-01T06:43:17.913Z,7.74
2017-11-01T06:44:28.064Z,7.76
2017-11-01T06:45:38.608Z,7.84
2017-11-01T06:46:49.260Z,7.74
2017-11-01T06:47:59.720Z,7.76
2017-11-01T06:49:10.202Z,7.79
2017-11-01T06:50:20.564Z,7.79
2017-11-01T06:51:31.051Z,7.79
2017-11-01T06:52:41.637Z,7.76
2017-11-01T06:53:53.051Z,7.74
2017-11-01T06:55:03.513Z,7.82
2017-11-01T06:56:13.986Z,7.79
2017-11-01T06:57:24.442Z,7.84
2017-11-01T06:58:34.884Z,7.73
2017-11-01T06:59:45.213Z,7.82
2017-11-01T07:00:55.710Z,7.8
2017-11-01T07:02:05.871Z,7.8
2017-11-01T07:03:16.381Z,7.9
2017-11-01T07:04:26.827Z,7.88
2017-11-01T07:05:37.320Z,7.9
2017-11-01T07:06:47.801Z,7.82
2017-11-01T07:07:58.252Z,7.76
2017-11-01T07:09:08.712Z,7.87
2017-11-01T07:10:19.168Z,7.82
2017-11-01T07:11:29.627Z,7.73
2017-11-01T07:12:40.093Z,7.84
2017-11-01T07:13:50.681Z,7.8
2017-11-01T07:15:01.136Z,7.79
2017-11-01T07:16:11.664Z,7.82
2017-11-01T07:17:22.137Z,7.79
2017-11-01T07:18:32.620Z,7.74
2017-11-01T07:19:42.785Z,7.8
2017-11-01T07:20:53.242Z,7.84
2017-11-01T07:22:03.797Z,7.84
2017-11-01T07:23:14.254Z,7.9
2017-11-01T07:24:24.736Z,7.84
2017-11-01T07:25:35.168Z,7.98
2017-11-01T07:26:45.623Z,7.95
2017-11-01T07:27:55.814Z,7.92
2017-11-01T07:29:06.269Z,7.9
2017-11-01T07:30:16.767Z,7.91
2017-11-01T07:31:27.287Z,7.97
2017-11-01T07:32:37.972Z,8.06
2017-11-01T07:33:48.434Z,8.07
2017-11-01T07:34:58.914Z,8.06
2017-11-01T07:36:09.073Z,8.05
2017-11-01T07:37:19.541Z,8.05
2017-11-01T07:38:29.980Z,8.1
2017-11-01T07:39:40.485Z,8.13
2017-11-01T07:40:51.059Z,8.09
2017-11-01T07:42:01.554Z,8.15
2017-11-01T07:43:12.131Z,8.06
2017-11-01T07:44:22.568Z,8.12
2017-11-01T07:45:33.014Z,8.12
2017-11-01T07:46:43.520Z,8.23
2017-11-01T07:47:54.177Z,8.2
2017-11-01T07:49:04.297Z,8.23
2017-11-01T07:50:14.779Z,8.12
2017-11-01T07:51:24.984Z,8.23
2017-11-01T07:52:35.529Z,8.15
2017-11-01T07:53:46.056Z,8.23
2017-11-01T07:54:56.530Z,8.1
2017-11-01T07:56:06.657Z,8.1
2017-11-01T07:57:17.107Z,8.2
2017-11-01T07:58:27.852Z,8.27
2017-11-01T07:59:38.326Z,8.15
2017-11-01T08:00:48.754Z,8.25
2017-11-01T08:01:59.105Z,8.27
2017-11-01T08:03:09.251Z,8.3
2017-11-01T08:04:19.775Z,8.31
2017-11-01T08:05:30.254Z,8.35
2017-11-01T08:06:40.454Z,8.31
2017-11-01T08:07:50.934Z,8.4
2017-11-01T08:09:01.398Z,8.43
2017-11-01T08:10:11.873Z,8.43
2017-11-01T08:11:22.377Z,8.42
2017-11-01T08:12:32.850Z,8.35
2017-11-01T08:13:43.343Z,8.37
2017-11-01T08:14:53.372Z,8.39
2017-11-01T08:16:03.500Z,8.52
2017-11-01T08:17:14.080Z,8.48
2017-11-01T08:18:24.619Z,8.45
2017-11-01T08:19:35.111Z,8.46
2017-11-01T08:20:45.297Z,8.45
2017-11-01T08:21:55.775Z,8.45
2017-11-01T08:23:06.244Z,8.43
2017-11-01T08:24:16.937Z,8.42
2017-11-01T08:25:27.369Z,8.42
2017-11-01T08:26:37.894Z,8.45
2017-11-01T08:27:48.448Z,8.48
2017-11-01T08:28:58.921Z,8.66
2017-11-01T08:30:09.525Z,8.66
2017-11-01T08:31:20.028Z,8.95
2017-11-01T08:32:30.527Z,8.97
2017-11-01T08:33:40.709Z,9.01
2017-11-01T08:34:51.227Z,9.12
2017-11-01T08:36:01.720Z,9.11
2017-11-01T08:37:12.342Z,9.09
2017-11-01T08:38:22.822Z,9.12
2017-11-01T08:39:33.323Z,9.23
2017-11-01T08:40:43.812Z,9.29
2017-11-01T08:41:55.239Z,9.35
2017-11-01T08:43:05.724Z,9.42
2017-11-01T08:44:16.364Z,9.47
2017-11-01T08:45:26.520Z,9.44
2017-11-01T08:46:36.990Z,9.44
2017-11-01T08:47:47.476Z,9.48
2017-11-01T08:48:57.955Z,9.33
2017-11-01T08:50:08.463Z,9.33
2017-11-01T08:51:18.945Z,9.29
2017-11-01T08:52:29.413Z,9.34
2017-11-01T08:53:39.874Z,9.27
2017-11-01T08:54:50.405Z,9.29
2017-11-01T08:56:00.854Z,9.12
2017-11-01T08:57:11.732Z,9.12
2017-11-01T08:58:22.169Z,9.15
2017-11-01T08:59:32.611Z,9.09
2017-11-01T09:00:43.053Z,9.11
2017-11-01T09:01:53.553Z,9.01
2017-11-01T09:03:04.072Z,9.01
2017-11-01T09:04:14.526Z,9
2017-11-01T09:05:24.985Z,9.01
2017-11-01T09:06:35.152Z,9.01
2017-11-01T09:07:45.607Z,9.04
2017-11-01T09:08:56.145Z,9.01
2017-11-01T09:10:06.625Z,9.02
2017-11-01T09:11:17.089Z,9
2017-11-01T09:12:27.551Z,9
2017-11-01T09:13:38.284Z,9
2017-11-01T09:14:48.753Z,9
2017-11-01T09:15:58.912Z,9.04
2017-11-01T09:17:09.385Z,8.95
2017-11-01T09:18:19.851Z,8.98
2017-11-01T09:19:30.339Z,8.93
2017-11-01T09:20:40.818Z,8.93
2017-11-01T09:21:51.275Z,9.02
2017-11-01T09:23:01.792Z,9.07
2017-11-01T09:24:12.347Z,9.05
2017-11-01T09:25:22.961Z,9.02
2017-11-01T09:26:33.476Z,8.98
2017-11-01T09:27:44.077Z,9.11
2017-11-01T09:28:54.584Z,9.02
2017-11-01T09:30:05.043Z,9.17
2017-11-01T09:31:15.595Z,9.11
2017-11-01T09:32:26.100Z,9.17
2017-11-01T09:33:36.341Z,9.16
2017-11-01T09:34:46.777Z,9.12
2017-11-01T09:35:57.455Z,9.11
2017-11-01T09:37:07.954Z,9.11
2017-11-01T09:38:18.436Z,9.15
2017-11-01T09:39:28.902Z,9.15
2017-11-01T09:40:39.412Z,9.15
2017-11-01T09:41:49.885Z,9.12
2017-11-01T09:43:00.377Z,9.17
2017-11-01T09:44:10.845Z,9.08
2017-11-01T09:45:21.352Z,9.09
2017-11-01T09:46:31.790Z,9.15
2017-11-01T09:47:42.244Z,9.08
2017-11-01T09:48:52.734Z,9.15
2017-11-01T09:50:03.419Z,9.09
2017-11-01T09:51:13.951Z,9.19
2017-11-01T09:52:24.474Z,9.22
2017-11-01T09:53:34.920Z,9.2
2017-11-01T09:54:45.059Z,9.12
2017-11-01T09:55:55.813Z,9.25
2017-11-01T09:57:06.348Z,9.23
2017-11-01T09:58:16.816Z,9.19
2017-11-01T09:59:27.257Z,9.2
2017-11-01T10:00:37.759Z,9.26
2017-11-01T10:01:48.268Z,9.27
2017-11-01T10:02:58.895Z,9.22
2017-11-01T10:04:09.358Z,9.29
2017-11-01T10:05:19.937Z,9.3
2017-11-01T10:06:30.387Z,9.27
2017-11-01T10:07:40.871Z,9.25
2017-11-01T10:08:51.368Z,9.26
2017-11-01T10:10:02.053Z,9.33
2017-11-01T10:11:12.227Z,9.33
2017-11-01T10:12:22.510Z,9.3
2017-11-01T10:13:32.974Z,9.3
2017-11-01T10:14:43.463Z,9.37
2017-11-01T10:15:53.910Z,9.34
2017-11-01T10:17:04.365Z,9.34
2017-11-01T10:18:14.836Z,9.38
2017-11-01T10:19:25.294Z,9.35
2017-11-01T10:20:35.946Z,9.33
2017-11-01T10:21:46.741Z,9.37
2017-11-01T10:22:57.223Z,9.45
2017-11-01T10:24:07.721Z,9.38
2017-11-01T10:25:18.190Z,9.35
2017-11-01T10:26:28.912Z,9.35
2017-11-01T10:27:39.393Z,9.37
2017-11-01T10:28:49.897Z,9.33
2017-11-01T10:30:00.426Z,9.41
2017-11-01T10:31:11.018Z,9.44
2017-11-01T10:32:21.511Z,9.42
2017-11-01T10:33:32.020Z,9.47
2017-11-01T10:34:42.518Z,9.3
2017-11-01T10:35:53.025Z,9.41
2017-11-01T10:37:03.528Z,9.41
2017-11-01T10:38:13.996Z,9.45
2017-11-01T10:39:24.461Z,9.44
2017-11-01T10:40:34.925Z,9.4
2017-11-01T10:41:45.071Z,9.5
2017-11-01T10:42:55.529Z,9.41
2017-11-01T10:44:05.720Z,9.52
2017-11-01T10:45:16.328Z,9.4
2017-11-01T10:46:26.825Z,9.35
2017-11-01T10:47:37.288Z,9.4
2017-11-01T10:48:47.466Z,9.37
2017-11-01T10:49:58.045Z,9.4
2017-11-01T10:51:09.609Z,9.41
2017-11-01T10:52:20.212Z,9.44
2017-11-01T10:53:30.750Z,9.44
2017-11-01T10:54:41.263Z,9.35
2017-11-01T10:55:51.712Z,9.35
2017-11-01T10:57:01.826Z,9.4
2017-11-01T10:58:12.406Z,9.44
2017-11-01T10:59:22.896Z,9.41
2017-11-01T11:00:33.366Z,9.4
2017-11-01T11:01:43.828Z,9.34
2017-11-01T11:02:54.456Z,9.44
2017-11-01T11:04:04.696Z,9.52
2017-11-01T11:05:15.211Z,9.59
2017-11-01T11:06:25.714Z,9.53
2017-11-01T11:07:35.544Z,9.53
2017-11-01T11:08:46.390Z,9.52
2017-11-01T11:09:56.920Z,9.52
2017-11-01T11:11:06.940Z,9.5
2017-11-01T11:12:16.626Z,9.53
2017-11-01T11:13:27.117Z,9.56
2017-11-01T11:14:37.599Z,9.65
2017-11-01T11:15:48.067Z,9.63
2017-11-01T11:16:58.619Z,9.65
2017-11-01T11:18:09.143Z,9.62
2017-11-01T11:19:19.604Z,9.5
2017-11-01T11:20:30.119Z,9.56
2017-11-01T11:21:40.568Z,9.59
2017-11-01T11:22:50.716Z,9.59
2017-11-01T11:24:01.429Z,9.66
2017-11-01T11:25:11.703Z,9.63
2017-11-01T11:26:22.284Z,9.63
2017-11-01T11:27:32.811Z,9.66
2017-11-01T11:28:42.876Z,9.65
2017-11-01T11:29:53.437Z,9.63
2017-11-01T11:31:03.870Z,9.71
2017-11-01T11:32:14.427Z,9.73
2017-11-01T11:33:25.106Z,9.74
2017-11-01T11:34:35.616Z,9.75
2017-11-01T11:35:46.116Z,9.7
2017-11-01T11:36:56.672Z,9.75
2017-11-01T11:38:07.154Z,9.65
2017-11-01T11:39:17.627Z,9.73
2017-11-01T11:40:28.127Z,9.73
2017-11-01T11:41:38.355Z,9.7
2017-11-01T11:42:48.849Z,9.6
2017-11-01T11:43:59.321Z,9.71
2017-11-01T11:45:09.914Z,9.7
2017-11-01T11:46:20.481Z,9.66
2017-11-01T11:47:30.992Z,9.66
2017-11-01T11:48:41.484Z,9.71
2017-11-01T11:49:52.095Z,9.65
2017-11-01T11:51:02.249Z,9.66
2017-11-01T11:52:12.694Z,9.62
2017-11-01T11:53:23.308Z,9.65
2017-11-01T11:54:33.822Z,9.63
2017-11-01T11:55:44.325Z,9.62
2017-11-01T11:56:54.868Z,9.62
2017-11-01T11:58:05.343Z,9.62
2017-11-01T11:59:15.860Z,9.62
2017-11-01T12:00:25.913Z,9.7
2017-11-01T12:01:36.432Z,9.73
2017-11-01T12:02:47.041Z,9.73
2017-11-01T12:03:58.646Z,9.6
2017-11-01T12:05:09.167Z,9.65
2017-11-01T12:06:19.837Z,9.63
2017-11-01T12:07:30.422Z,9.74
2017-11-01T12:08:40.997Z,9.74
2017-11-01T12:09:51.135Z,9.74
2017-11-01T12:11:01.598Z,9.66
2017-11-01T12:12:12.180Z,9.73
2017-11-01T12:13:22.657Z,9.62
2017-11-01T12:14:32.737Z,9.62
2017-11-01T12:15:43.294Z,9.62
2017-11-01T12:16:53.801Z,9.63
2017-11-01T12:18:04.256Z,9.65
2017-11-01T12:19:14.733Z,9.63
2017-11-01T12:20:24.484Z,9.67
2017-11-01T12:21:35.147Z,9.74
2017-11-01T12:22:45.185Z,9.73
2017-11-01T12:23:55.705Z,9.78
2017-11-01T12:25:06.163Z,9.66
2017-11-01T12:26:16.766Z,9.77
2017-11-01T12:27:27.393Z,9.66
2017-11-01T12:28:37.917Z,9.62
2017-11-01T12:29:48.465Z,9.78
2017-11-01T12:30:58.966Z,9.66
2017-11-01T12:32:09.441Z,9.73
2017-11-01T12:33:20.049Z,9.65
2017-11-01T12:34:30.509Z,9.74
2017-11-01T12:35:40.990Z,9.78
2017-11-01T12:36:51.460Z,9.62
2017-11-01T12:38:01.928Z,9.62
2017-11-01T12:39:12.403Z,9.71
2017-11-01T12:40:22.880Z,9.77
2017-11-01T12:41:32.937Z,9.74
2017-11-01T12:42:43.435Z,9.75
2017-11-01T12:43:54.029Z,9.66
2017-11-01T12:45:04.322Z,9.7
2017-11-01T12:46:14.802Z,9.7
2017-11-01T12:47:25.269Z,9.74
2017-11-01T12:48:35.273Z,9.81
2017-11-01T12:49:45.799Z,9.63
2017-11-01T12:50:56.277Z,9.7
2017-11-01T12:52:06.496Z,9.67
2017-11-01T12:53:17.462Z,9.66
2017-11-01T12:54:27.630Z,9.8
2017-11-01T12:55:38.154Z,9.75
2017-11-01T12:56:48.653Z,9.81
2017-11-01T12:57:59.201Z,9.75
2017-11-01T12:59:09.788Z,9.77
2017-11-01T13:00:20.236Z,9.77
2017-11-01T13:01:30.728Z,9.75
2017-11-01T13:02:41.217Z,9.77
2017-11-01T13:03:51.342Z,9.83
2017-11-01T13:05:01.971Z,9.66
2017-11-01T13:06:12.484Z,9.74
2017-11-01T13:07:22.986Z,9.74
2017-11-01T13:08:33.485Z,9.66
2017-11-01T13:09:43.961Z,9.6
2017-11-01T13:10:54.431Z,9.65
2017-11-01T13:12:04.959Z,9.66
2017-11-01T13:13:15.412Z,9.67
2017-11-01T13:14:25.965Z,9.56
2017-11-01T13:15:36.480Z,9.66
2017-11-01T13:16:47.014Z,9.63
2017-11-01T13:17:57.239Z,9.62
2017-11-01T13:19:07.765Z,9.63
2017-11-01T13:20:18.453Z,9.66
2017-11-01T13:21:28.930Z,9.6
2017-11-01T13:22:39.438Z,9.67
2017-11-01T13:23:49.887Z,9.66
2017-11-01T13:25:00.414Z,9.71
2017-11-01T13:26:10.871Z,9.74
2017-11-01T13:27:21.371Z,9.65
2017-11-01T13:28:31.905Z,9.73
2017-11-01T13:29:42.476Z,9.66
2017-11-01T13:30:52.953Z,9.73
2017-11-01T13:32:03.427Z,9.62
2017-11-01T13:33:13.897Z,9.73
2017-11-01T13:34:24.396Z,9.77
2017-11-01T13:35:34.909Z,9.66
2017-11-01T13:36:45.485Z,9.74
2017-11-01T13:37:55.959Z,9.74
2017-11-01T13:39:06.441Z,9.8
2017-11-01T13:40:16.994Z,9.71
2017-11-01T13:41:27.699Z,9.71
2017-11-01T13:42:38.163Z,9.77
2017-11-01T13:43:48.616Z,9.81
2017-11-01T13:44:59.094Z,9.78
2017-11-01T13:46:09.594Z,9.81
2017-11-01T13:47:20.131Z,9.8
2017-11-01T13:48:31.584Z,9.81
2017-11-01T13:49:42.108Z,9.73
2017-11-01T13:50:52.572Z,9.7
2017-11-01T13:52:03.155Z,9.78
2017-11-01T13:53:13.656Z,9.74
2017-11-01T13:54:23.743Z,9.66
2017-11-01T13:55:34.231Z,9.75
2017-11-01T13:56:44.672Z,9.73
2017-11-01T13:57:55.211Z,9.74
2017-11-01T13:59:05.792Z,9.81
2017-11-01T14:00:16.317Z,9.73
2017-11-01T14:01:26.815Z,9.78
2017-11-01T14:02:37.300Z,9.8
2017-11-01T14:03:47.782Z,9.77
2017-11-01T14:04:58.233Z,9.75
2017-11-01T14:06:08.375Z,9.78
2017-11-01T14:07:18.856Z,9.7
2017-11-01T14:08:29.383Z,9.75
2017-11-01T14:09:39.891Z,9.75
2017-11-01T14:10:50.406Z,9.78
2017-11-01T14:12:00.956Z,9.8
2017-11-01T14:13:11.457Z,9.83
2017-11-01T14:14:21.917Z,9.77
2017-11-01T14:15:32.404Z,9.84
2017-11-01T14:16:42.625Z,9.81
2017-11-01T14:17:53.379Z,9.77
2017-11-01T14:19:03.886Z,9.78
2017-11-01T14:20:14.004Z,9.8
2017-11-01T14:21:24.473Z,9.8
2017-11-01T14:22:34.180Z,9.84
2017-11-01T14:23:44.628Z,9.84
2017-11-01T14:24:55.122Z,9.85
2017-11-01T14:26:05.615Z,9.89
2017-11-01T14:27:16.132Z,9.8
2017-11-01T14:28:26.616Z,9.85
2017-11-01T14:29:37.157Z,9.85
2017-11-01T14:30:47.658Z,9.88
2017-11-01T14:31:58.365Z,9.92
2017-11-01T14:33:08.849Z,9.98
2017-11-01T14:34:19.282Z,9.92
2017-11-01T14:35:29.811Z,9.91
2017-11-01T14:36:40.330Z,9.89
2017-11-01T14:37:50.855Z,9.95
2017-11-01T14:39:01.564Z,9.91
2017-11-01T14:40:12.056Z,9.92
2017-11-01T14:41:22.631Z,9.83
2017-11-01T14:42:33.134Z,9.92
2017-11-01T14:43:43.590Z,9.89
2017-11-01T14:44:54.156Z,9.93
2017-11-01T14:46:05.623Z,9.88
2017-11-01T14:47:16.098Z,9.96
2017-11-01T14:48:26.567Z,9.89
2017-11-01T14:49:37.152Z,9.89
2017-11-01T14:50:47.660Z,9.85
2017-11-01T14:52:30.093Z,9.92
2017-11-01T14:53:40.278Z,9.88
2017-11-01T14:54:50.729Z,9.88
2017-11-01T14:56:01.293Z,9.91
2017-11-01T14:57:11.823Z,9.92
2017-11-01T14:58:22.317Z,9.84
2017-11-01T14:59:32.831Z,9.91
2017-11-01T15:00:43.326Z,9.91
2017-11-01T15:01:53.872Z,9.95
2017-11-01T15:03:04.358Z,9.89
2017-11-01T15:04:14.928Z,9.93
2017-11-01T15:05:25.544Z,9.96
2017-11-01T15:06:36.012Z,9.88
2017-11-01T15:07:46.528Z,9.88
2017-11-01T15:08:57.034Z,9.95
2017-11-01T15:10:07.748Z,9.95
2017-11-01T15:11:18.227Z,9.92
2017-11-01T15:12:28.742Z,9.91
2017-11-01T15:13:39.254Z,9.92
2017-11-01T15:14:49.745Z,9.91
2017-11-01T15:16:00.348Z,9.92
2017-11-01T15:17:10.902Z,9.89
2017-11-01T15:18:21.435Z,9.91
2017-11-01T15:19:31.651Z,9.99
2017-11-01T15:20:42.139Z,10.05
2017-11-01T15:21:52.624Z,9.96
2017-11-01T15:23:03.352Z,9.91
2017-11-01T15:24:13.883Z,9.98
2017-11-01T15:25:24.429Z,9.99
2017-11-01T15:26:35.086Z,9.98
2017-11-01T15:27:45.811Z,9.99
2017-11-01T15:28:56.047Z,9.98
2017-11-01T15:30:06.625Z,9.96
2017-11-01T15:31:16.883Z,9.96
2017-11-01T15:32:27.994Z,10.03
2017-11-01T15:33:38.481Z,10
2017-11-01T15:34:48.988Z,9.95
2017-11-01T15:35:59.469Z,9.99
2017-11-01T15:37:09.986Z,10.02
2017-11-01T15:38:20.505Z,9.89
2017-11-01T15:39:31.052Z,9.91
2017-11-01T15:40:41.579Z,10
2017-11-01T15:41:52.085Z,9.95
2017-11-01T15:43:02.629Z,9.96